首页
METAR-TAF:

METAR-TAF

机场 :

法兰克福, 密歇根州, 美国

纬度: 44-37-30N, 经度: 086-12-02W, 海拔: 193米

当前天气观测

该预报发布于6分钟前的20:56 UTC
风速7节,风向西
温度 20°C
湿度 64%
气压 1014 hPa
能見度: 16.1公里
散云层高于8500英尺

METAR: KFKS 232056Z AUTO 28007KT 10SM SCT085 20/13 A2993 RMK AO2 T02010133

时间: 17:02 (21:02 UTC)


TAF: 丢失

超过4000个机场的气象观测和天气预报(METAR&TAF报告)。

可查询的气象台以黄色和红色小点在地图上表示。

将鼠标移到小点上方,可查看气象台名称。

然后点击查看天气观测和预报。

如需切换地图:点击带黑十字的绿色按钮放大地图;点击带横线的绿色按钮缩小地图;或者点击绿色箭头查看邻近地区的地图。


METAR-TAF: